Time;durP1;ratioP1;P1;durP2;ratioP2;P2;SDS_P1;SDS_P2;PMS_P1;PMS_P2;Temp;Humidity;BMP_temperature;BMP_pressure;BME280_temperature;BME280_humidity;BME280_pressure;Samples;Min_cycle;Max_cycle;Signal;HPM_P1;HPM_P2
2021/11/20 00:00:20;;;;;;;4.60;1.00;;;7.40;99.90;;;;;;6233174;23;20175;-86
2021/11/20 00:02:53;;;;;;;1.20;0.80;;;7.40;99.90;;;;;;6234281;23;20202;-85
2021/11/20 00:05:28;;;;;;;0.90;0.83;;;7.40;99.90;;;;;;6234089;23;20199;-85
2021/11/20 00:08:00;;;;;;;1.47;0.90;;;7.40;99.90;;;;;;6223320;23;20179;-84
2021/11/20 00:10:34;;;;;;;1.33;0.70;;;7.40;99.90;;;;;;6218604;23;20171;-86
2021/11/20 00:13:10;;;;;;;2.63;1.00;;;7.40;99.90;;;;;;6218728;23;20175;-85
2021/11/20 00:15:45;;;;;;;2.00;1.00;;;7.40;99.90;;;;;;6231827;23;20163;-85
2021/11/20 00:18:19;;;;;;;1.80;0.80;;;7.40;99.90;;;;;;6233049;23;20176;-85
2021/11/20 00:20:55;;;;;;;1.37;1.10;;;7.40;99.90;;;;;;6232285;23;20228;-86
2021/11/20 00:23:30;;;;;;;2.50;1.03;;;7.50;99.90;;;;;;6231974;23;20509;-85
2021/11/20 00:26:02;;;;;;;2.70;1.77;;;7.40;99.90;;;;;;6224476;23;20179;-84
2021/11/20 00:28:43;;;;;;;8.63;3.70;;;7.30;99.90;;;;;;6219083;23;20199;-85
2021/11/20 00:31:26;;;;;;;15.33;5.60;;;7.20;99.90;;;;;;6232015;23;20251;-83
2021/11/20 00:33:59;;;;;;;12.60;5.20;;;7.10;99.90;;;;;;6230212;23;20176;-85
2021/11/20 00:36:32;;;;;;;13.53;5.57;;;7.10;99.90;;;;;;6230745;23;20554;-87
2021/11/20 00:39:05;;;;;;;9.70;4.20;;;7.00;99.90;;;;;;6230402;23;20576;-84
2021/11/20 00:41:37;;;;;;;12.87;5.53;;;6.90;99.90;;;;;;6234267;23;20171;-84
2021/11/20 00:44:14;;;;;;;8.20;3.90;;;6.90;99.90;;;;;;6232212;23;20196;-85
2021/11/20 00:46:47;;;;;;;6.87;2.00;;;6.80;99.90;;;;;;6229844;23;20196;-84
2021/11/20 00:49:23;;;;;;;5.97;1.70;;;6.80;99.90;;;;;;6234218;23;20168;-84
2021/11/20 00:52:00;;;;;;;4.20;1.90;;;6.70;99.90;;;;;;6233334;23;20174;-84
2021/11/20 00:54:33;;;;;;;3.13;1.47;;;6.70;99.90;;;;;;6231741;23;20183;-84
2021/11/20 00:57:07;;;;;;;3.67;1.67;;;6.70;99.90;;;;;;6233175;23;20180;-85
2021/11/20 00:59:52;;;;;;;2.87;1.60;;;6.70;99.90;;;;;;6252677;23;20236;-84
2021/11/20 01:02:28;;;;;;;1.97;1.07;;;6.60;99.90;;;;;;6233890;23;20259;-85
2021/11/20 01:05:01;;;;;;;4.30;1.60;;;6.50;99.90;;;;;;6232930;23;20749;-84
2021/11/20 01:07:33;;;;;;;4.33;1.47;;;6.50;99.90;;;;;;6230736;23;20251;-84
2021/11/20 01:10:08;;;;;;;2.10;1.30;;;6.40;99.90;;;;;;6232514;23;20231;-85
2021/11/20 01:12:41;;;;;;;5.97;1.40;;;6.40;99.90;;;;;;6218610;23;20182;-85
2021/11/20 01:15:19;;;;;;;2.60;1.10;;;6.40;99.90;;;;;;6231092;23;20225;-85
2021/11/20 01:17:51;;;;;;;6.33;1.60;;;6.40;99.90;;;;;;6217818;23;20172;-84
2021/11/20 01:20:24;;;;;;;3.83;1.40;;;6.40;99.90;;;;;;6233242;23;20238;-85
2021/11/20 01:22:56;;;;;;;3.60;1.50;;;6.40;99.90;;;;;;6229799;23;20177;-85
2021/11/20 01:25:28;;;;;;;2.80;1.80;;;6.30;99.90;;;;;;6262814;22;20331;-86
2021/11/20 01:28:00;;;;;;;3.20;1.60;;;6.30;99.90;;;;;;6241403;23;20187;-84
2021/11/20 01:30:35;;;;;;;5.47;1.83;;;6.30;99.90;;;;;;6239558;23;20177;-84
2021/11/20 01:33:09;;;;;;;2.17;1.73;;;6.30;99.90;;;;;;6237778;23;20170;-84
2021/11/20 01:38:34;;;;;;;5.93;1.93;;;6.30;99.90;;;;;;6237479;23;20177;-84
2021/11/20 01:41:07;;;;;;;3.40;2.73;;;6.30;99.90;;;;;;6233469;23;20173;-84
2021/11/20 01:43:39;;;;;;;3.57;2.90;;;6.30;99.90;;;;;;6228402;23;20259;-85
2021/11/20 01:46:21;;;;;;;6.90;3.13;;;6.30;99.90;;;;;;6224071;23;20195;-84
2021/11/20 01:49:02;;;;;;;3.87;3.27;;;6.30;99.90;;;;;;6230853;23;20471;-86
2021/11/20 01:51:37;;;;;;;6.23;4.43;;;6.30;99.90;;;;;;6231356;23;20178;-84
2021/11/20 01:54:23;;;;;;;7.10;5.00;;;6.30;99.90;;;;;;6231503;23;20192;-85
2021/11/20 01:57:02;;;;;;;7.40;5.67;;;6.30;99.90;;;;;;6233596;23;20204;-85
2021/11/20 01:59:40;;;;;;;6.17;5.00;;;6.30;99.90;;;;;;6225085;23;20196;-84
2021/11/20 02:02:20;;;;;;;7.93;4.57;;;6.30;99.90;;;;;;6245930;23;20171;-86
2021/11/20 02:05:00;;;;;;;4.33;3.83;;;6.20;99.90;;;;;;6235502;23;20204;-84
2021/11/20 02:07:37;;;;;;;4.47;3.50;;;6.30;99.90;;;;;;6236909;23;20218;-85
2021/11/20 02:10:14;;;;;;;7.20;4.27;;;6.20;99.90;;;;;;6236803;23;20199;-84
2021/11/20 02:12:52;;;;;;;3.43;3.13;;;6.30;99.90;;;;;;6264067;22;20157;-85
2021/11/20 02:15:29;;;;;;;4.00;3.27;;;6.30;99.90;;;;;;6239531;23;20182;-86
2021/11/20 02:18:11;;;;;;;3.97;2.93;;;6.30;99.90;;;;;;6228486;23;20190;-83
2021/11/20 02:20:49;;;;;;;4.03;2.73;;;6.30;99.90;;;;;;6225327;23;20185;-83
2021/11/20 02:23:19;;;;;;;4.53;3.90;;;6.30;99.90;;;;;;6238784;23;20176;-84
2021/11/20 02:25:50;;;;;;;5.33;3.57;;;6.30;99.90;;;;;;6234292;23;20287;-84
2021/11/20 02:28:24;;;;;;;4.17;3.30;;;6.30;99.90;;;;;;6228477;23;20180;-85
2021/11/20 02:31:11;;;;;;;4.20;3.10;;;6.30;99.90;;;;;;6235776;23;20168;-84
2021/11/20 02:33:43;;;;;;;3.83;2.73;;;6.30;99.90;;;;;;6235246;23;20203;-85
2021/11/20 02:36:16;;;;;;;4.20;2.77;;;6.30;99.90;;;;;;6234986;23;20182;-85
2021/11/20 02:38:51;;;;;;;4.00;2.90;;;6.30;99.90;;;;;;6224804;23;20172;-84
2021/11/20 02:44:11;;;;;;;3.53;2.33;;;6.20;99.90;;;;;;6235375;23;20176;-84
2021/11/20 02:46:50;;;;;;;2.50;2.20;;;6.30;99.90;;;;;;6234500;23;20335;-84
2021/11/20 02:49:22;;;;;;;3.53;1.97;;;6.30;99.90;;;;;;6234719;23;20191;-84
2021/11/20 02:51:59;;;;;;;2.90;1.70;;;6.30;99.90;;;;;;6233937;23;20362;-85
2021/11/20 02:54:34;;;;;;;2.37;1.70;;;6.30;99.90;;;;;;6234246;23;20242;-85
2021/11/20 02:57:10;;;;;;;2.57;1.80;;;6.30;99.90;;;;;;6231308;23;20228;-83
2021/11/20 02:59:43;;;;;;;2.60;1.60;;;6.30;99.90;;;;;;6234158;23;20174;-84
2021/11/20 03:02:19;;;;;;;3.40;2.07;;;6.20;99.90;;;;;;6235827;23;20206;-84
2021/11/20 03:04:51;;;;;;;5.03;2.13;;;6.20;99.90;;;;;;6231460;23;20210;-84
2021/11/20 03:07:22;;;;;;;5.07;1.80;;;6.30;99.90;;;;;;6235192;23;20160;-84
2021/11/20 03:09:54;;;;;;;4.40;3.33;;;6.30;99.90;;;;;;6236227;23;20241;-84
2021/11/20 03:12:28;;;;;;;4.83;3.50;;;6.30;99.90;;;;;;6233690;23;20186;-85
2021/11/20 03:15:01;;;;;;;4.97;2.83;;;6.30;99.90;;;;;;6234413;23;20179;-84
2021/11/20 03:17:36;;;;;;;4.50;2.80;;;6.30;99.90;;;;;;6233712;23;20197;-85
2021/11/20 03:20:11;;;;;;;2.90;2.53;;;6.30;99.90;;;;;;6234746;23;20195;-84
2021/11/20 03:22:46;;;;;;;4.20;2.30;;;6.30;99.90;;;;;;6233001;23;20187;-83
2021/11/20 03:25:19;;;;;;;3.90;2.30;;;6.30;99.90;;;;;;6232723;23;20279;-86
2021/11/20 03:27:52;;;;;;;3.87;2.10;;;6.30;99.90;;;;;;6221489;23;20179;-84
2021/11/20 03:30:24;;;;;;;4.37;2.40;;;6.30;99.90;;;;;;6236561;23;20232;-84
2021/11/20 03:32:58;;;;;;;4.23;2.60;;;6.40;99.90;;;;;;6237395;23;20169;-84
2021/11/20 03:35:31;;;;;;;4.33;2.77;;;6.30;99.90;;;;;;6235689;23;20215;-84
2021/11/20 03:38:05;;;;;;;4.07;2.97;;;6.30;99.90;;;;;;6239399;23;20267;-85
2021/11/20 03:40:43;;;;;;;5.97;2.63;;;6.30;99.90;;;;;;6234373;23;20240;-85
2021/11/20 03:43:17;;;;;;;4.37;2.50;;;6.30;99.90;;;;;;6232709;23;20192;-85
2021/11/20 03:45:49;;;;;;;5.70;2.97;;;6.30;99.90;;;;;;6233006;23;20216;-83
2021/11/20 03:48:23;;;;;;;3.60;2.60;;;6.20;99.90;;;;;;6240458;23;20227;-84
2021/11/20 03:50:55;;;;;;;4.03;2.80;;;6.30;99.90;;;;;;6239511;23;20159;-84
2021/11/20 03:53:27;;;;;;;4.30;2.90;;;6.20;99.90;;;;;;6231769;23;20178;-83
2021/11/20 03:56:02;;;;;;;4.67;2.90;;;6.30;99.90;;;;;;6219219;23;20255;-85
2021/11/20 03:58:33;;;;;;;7.20;3.40;;;6.30;99.90;;;;;;6225794;23;20203;-85
2021/11/20 04:01:09;;;;;;;7.33;4.30;;;6.30;99.90;;;;;;6218065;23;20175;-84
2021/11/20 04:03:44;;;;;;;9.07;4.87;;;6.30;99.90;;;;;;6230997;23;20168;-85
2021/11/20 04:06:17;;;;;;;9.43;5.63;;;6.30;99.90;;;;;;6231043;23;20261;-84
2021/11/20 04:08:50;;;;;;;8.90;5.17;;;6.30;99.90;;;;;;6231795;23;20224;-85
2021/11/20 04:11:24;;;;;;;9.17;5.70;;;6.30;99.90;;;;;;6218211;23;20203;-84
2021/11/20 04:13:57;;;;;;;7.73;5.13;;;6.30;99.90;;;;;;6225948;23;20164;-84
2021/11/20 04:16:31;;;;;;;8.80;4.73;;;6.30;99.90;;;;;;6221450;23;20187;-83
2021/11/20 04:21:35;;;;;;;4.97;4.07;;;6.20;99.90;;;;;;6265226;23;20180;-84
2021/11/20 04:24:09;;;;;;;5.17;3.73;;;6.20;99.90;;;;;;6263740;22;20276;-84
2021/11/20 04:26:41;;;;;;;6.23;3.23;;;6.20;99.90;;;;;;6263084;23;20251;-84
2021/11/20 04:29:13;;;;;;;3.90;3.00;;;6.30;99.90;;;;;;6262930;22;20186;-83
2021/11/20 04:31:44;;;;;;;3.43;2.30;;;6.20;99.90;;;;;;6255357;22;20243;-85
2021/11/20 04:37:04;;;;;;;4.80;2.77;;;6.20;99.90;;;;;;6257365;23;20254;-85
2021/11/20 04:39:36;;;;;;;2.90;2.40;;;6.20;99.90;;;;;;6263448;22;20191;-85
2021/11/20 04:42:08;;;;;;;3.73;2.73;;;6.20;99.90;;;;;;6261246;23;20566;-84
2021/11/20 04:44:40;;;;;;;3.90;2.50;;;6.20;99.90;;;;;;6259568;22;20320;-85
2021/11/20 04:47:12;;;;;;;4.03;2.80;;;6.20;99.90;;;;;;6261896;23;20266;-85
2021/11/20 04:52:21;;;;;;;5.37;3.00;;;6.20;99.90;;;;;;6226089;23;20188;-85
2021/11/20 04:54:53;;;;;;;3.43;2.60;;;6.10;99.90;;;;;;6218178;23;20196;-84
2021/11/20 04:57:31;;;;;;;4.87;2.63;;;6.10;99.90;;;;;;6216847;23;20176;-84
2021/11/20 05:00:02;;;;;;;3.47;2.47;;;6.10;99.90;;;;;;6217390;23;20216;-84
2021/11/20 05:02:35;;;;;;;2.70;2.30;;;6.10;99.90;;;;;;6217703;23;20188;-85
2021/11/20 05:05:08;;;;;;;4.53;2.93;;;6.10;99.90;;;;;;6216760;23;20255;-86
2021/11/20 05:07:45;;;;;;;5.00;2.57;;;6.10;99.90;;;;;;6235916;23;20199;-84
2021/11/20 05:10:16;;;;;;;3.57;2.60;;;6.10;99.90;;;;;;6219663;23;20178;-85
2021/11/20 05:12:48;;;;;;;3.87;2.40;;;6.10;99.90;;;;;;6217331;23;20195;-85
2021/11/20 05:15:20;;;;;;;3.00;2.47;;;6.10;99.90;;;;;;6216641;23;20168;-82
2021/11/20 05:17:52;;;;;;;3.90;2.63;;;6.00;99.90;;;;;;6217247;23;20179;-85
2021/11/20 05:20:24;;;;;;;3.90;2.70;;;6.00;99.90;;;;;;6218049;23;20169;-85
2021/11/20 05:22:58;;;;;;;4.90;2.73;;;6.10;99.90;;;;;;6218257;23;20255;-85
2021/11/20 05:25:30;;;;;;;4.07;2.60;;;6.00;99.90;;;;;;6219642;23;20495;-84
2021/11/20 05:28:02;;;;;;;4.87;3.17;;;6.00;99.90;;;;;;6227042;23;20184;-84
2021/11/20 05:30:38;;;;;;;5.43;3.70;;;6.00;99.90;;;;;;6224962;23;20165;-84
2021/11/20 05:33:11;;;;;;;5.83;3.40;;;6.00;99.90;;;;;;6232314;23;20183;-85
2021/11/20 05:35:43;;;;;;;6.33;3.80;;;5.90;99.90;;;;;;6230038;23;20264;-85
2021/11/20 05:38:18;;;;;;;4.50;2.97;;;5.90;99.90;;;;;;6223815;23;20172;-84
2021/11/20 05:40:50;;;;;;;5.60;3.37;;;5.90;99.90;;;;;;6218491;23;20205;-84
2021/11/20 05:43:23;;;;;;;5.87;3.30;;;5.90;99.90;;;;;;6217882;23;20683;-84
2021/11/20 05:46:00;;;;;;;5.37;3.67;;;5.90;99.90;;;;;;6217363;23;20169;-84
2021/11/20 05:48:31;;;;;;;5.80;3.57;;;5.90;99.90;;;;;;6218622;23;20224;-85
2021/11/20 05:51:03;;;;;;;6.60;5.07;;;5.90;99.90;;;;;;6218304;23;20180;-85
2021/11/20 05:53:37;;;;;;;7.03;5.17;;;5.90;99.90;;;;;;6248969;23;20177;-85
2021/11/20 05:56:09;;;;;;;7.93;5.60;;;5.80;99.90;;;;;;6225401;23;20176;-84
2021/11/20 05:58:41;;;;;;;5.20;4.03;;;5.80;99.90;;;;;;6219096;23;20576;-85
2021/11/20 06:01:15;;;;;;;4.07;3.50;;;5.80;99.90;;;;;;6225601;23;20236;-84
2021/11/20 06:03:47;;;;;;;5.70;3.83;;;5.80;99.90;;;;;;6226847;23;20172;-85
2021/11/20 06:06:18;;;;;;;4.73;3.20;;;5.80;99.90;;;;;;6225944;23;20181;-85
2021/11/20 06:08:52;;;;;;;5.03;4.17;;;5.80;99.90;;;;;;6228115;23;20169;-84
2021/11/20 06:11:24;;;;;;;4.97;3.80;;;5.80;99.90;;;;;;6221206;23;20168;-85
2021/11/20 06:13:55;;;;;;;5.03;3.83;;;5.80;99.90;;;;;;6224909;23;20208;-85
2021/11/20 06:16:27;;;;;;;6.60;4.07;;;5.80;99.90;;;;;;6225122;23;20185;-84
2021/11/20 06:18:58;;;;;;;5.37;4.80;;;5.80;99.90;;;;;;6219713;23;20279;-85
2021/11/20 06:21:30;;;;;;;5.93;4.73;;;5.80;99.90;;;;;;6235554;23;20196;-84
2021/11/20 06:24:04;;;;;;;3.90;3.50;;;5.70;99.90;;;;;;6235433;23;20172;-85
2021/11/20 06:26:36;;;;;;;5.97;3.40;;;5.70;99.90;;;;;;6225015;23;20164;-85
2021/11/20 06:29:08;;;;;;;5.77;3.13;;;5.70;99.90;;;;;;6236401;23;20187;-85
2021/11/20 06:31:40;;;;;;;3.70;2.97;;;5.70;99.90;;;;;;6219305;23;20173;-85
2021/11/20 06:34:12;;;;;;;7.43;3.03;;;5.80;99.90;;;;;;6224617;23;20651;-85
2021/11/20 06:36:44;;;;;;;3.83;2.80;;;5.70;99.90;;;;;;6218899;23;20169;-85
2021/11/20 06:39:17;;;;;;;6.43;3.37;;;5.80;99.90;;;;;;6220419;23;20191;-85
2021/11/20 06:41:49;;;;;;;7.17;2.67;;;5.70;99.90;;;;;;6219690;23;20190;-85
2021/11/20 06:44:21;;;;;;;3.30;2.70;;;5.70;99.90;;;;;;6220049;23;20183;-85
2021/11/20 06:46:52;;;;;;;3.93;3.00;;;5.70;99.90;;;;;;6218491;23;20201;-85
2021/11/20 06:49:24;;;;;;;4.57;2.60;;;5.70;99.90;;;;;;6232256;22;20208;-85
2021/11/20 06:51:56;;;;;;;4.97;2.67;;;5.70;99.90;;;;;;6250310;22;20178;-85
2021/11/20 06:54:30;;;;;;;3.57;2.73;;;5.70;99.90;;;;;;6250702;23;20179;-85
2021/11/20 06:57:10;;;;;;;3.03;2.40;;;5.70;99.90;;;;;;6251778;22;20174;-86
2021/11/20 07:02:35;;;;;;;4.73;2.70;;;5.70;99.90;;;;;;6269662;23;20190;-84
2021/11/20 07:05:09;;;;;;;6.57;2.57;;;5.70;99.90;;;;;;6270541;23;20206;-88
2021/11/20 07:07:41;;;;;;;2.90;2.60;;;5.70;99.90;;;;;;6263300;22;20196;-84
2021/11/20 07:10:20;;;;;;;4.20;3.13;;;5.70;99.90;;;;;;6250566;22;20252;-85
2021/11/20 07:12:53;;;;;;;5.03;2.60;;;5.70;99.90;;;;;;6250724;23;20602;-84
2021/11/20 07:15:25;;;;;;;3.40;2.37;;;5.70;99.90;;;;;;6249093;22;20662;-84
2021/11/20 07:17:57;;;;;;;3.10;2.27;;;5.70;99.90;;;;;;6248976;22;20178;-84
2021/11/20 07:20:31;;;;;;;2.67;2.30;;;5.70;99.90;;;;;;6249258;23;20164;-84
2021/11/20 07:23:03;;;;;;;3.27;2.70;;;5.70;99.90;;;;;;6250743;22;20167;-84
2021/11/20 07:25:37;;;;;;;4.17;2.93;;;5.70;99.90;;;;;;6253509;23;20202;-85
2021/11/20 07:28:10;;;;;;;5.23;2.43;;;5.60;99.90;;;;;;6248929;22;20201;-85
2021/11/20 07:30:43;;;;;;;2.87;2.50;;;5.70;99.90;;;;;;6249536;23;20175;-85
2021/11/20 07:33:15;;;;;;;3.33;2.60;;;5.70;99.90;;;;;;6249059;23;20179;-85
2021/11/20 07:35:49;;;;;;;3.37;2.73;;;5.60;99.90;;;;;;6248017;23;20178;-85
2021/11/20 07:38:24;;;;;;;4.37;2.63;;;5.60;99.90;;;;;;6249608;23;20161;-85
2021/11/20 07:40:57;;;;;;;4.10;2.50;;;5.60;99.90;;;;;;6249287;23;20217;-86
2021/11/20 07:43:29;;;;;;;4.43;2.80;;;5.60;99.90;;;;;;6249563;23;20243;-85
2021/11/20 07:46:12;;;;;;;3.20;2.63;;;5.60;99.90;;;;;;6264966;23;20270;-84
2021/11/20 07:48:46;;;;;;;3.40;2.70;;;5.60;99.90;;;;;;6254057;23;20189;-84
2021/11/20 07:51:18;;;;;;;4.30;3.17;;;5.50;99.90;;;;;;6249148;23;20164;-85
2021/11/20 07:53:50;;;;;;;2.53;2.33;;;5.50;99.90;;;;;;6248186;22;20239;-83
2021/11/20 07:56:27;;;;;;;3.10;2.77;;;5.50;99.90;;;;;;6248088;23;20194;-86
2021/11/20 07:58:59;;;;;;;3.70;2.70;;;5.50;99.90;;;;;;6248838;23;20176;-86
2021/11/20 08:01:31;;;;;;;3.23;2.43;;;5.50;99.90;;;;;;6247946;23;20171;-84
2021/11/20 08:04:02;;;;;;;3.73;2.57;;;5.50;99.90;;;;;;6248410;22;20171;-85
2021/11/20 08:06:35;;;;;;;3.63;2.77;;;5.50;99.90;;;;;;6248025;23;20175;-85
2021/11/20 08:09:07;;;;;;;3.60;2.80;;;5.40;99.90;;;;;;6251855;22;20274;-85
2021/11/20 08:11:42;;;;;;;3.73;2.77;;;5.50;99.90;;;;;;6249345;22;20243;-84
2021/11/20 08:14:14;;;;;;;2.80;2.50;;;5.50;99.90;;;;;;6248964;23;20281;-84
2021/11/20 08:16:45;;;;;;;3.97;2.77;;;5.50;99.90;;;;;;6247538;22;20176;-84
2021/11/20 08:19:17;;;;;;;5.97;3.00;;;5.50;99.90;;;;;;6261779;23;20179;-85
2021/11/20 08:21:49;;;;;;;2.70;2.40;;;5.50;99.90;;;;;;6263305;23;20187;-84
2021/11/20 08:24:21;;;;;;;3.07;2.50;;;5.50;99.90;;;;;;6257080;23;20171;-82
2021/11/20 08:26:55;;;;;;;3.40;2.63;;;5.50;99.90;;;;;;6248111;22;20250;-84
2021/11/20 08:29:30;;;;;;;4.37;2.70;;;5.50;99.90;;;;;;6248866;23;20198;-84
2021/11/20 08:32:01;;;;;;;4.37;2.87;;;5.50;99.90;;;;;;6248683;23;20216;-83
2021/11/20 08:34:33;;;;;;;4.67;2.73;;;5.50;99.90;;;;;;6248527;22;20172;-84
2021/11/20 08:37:05;;;;;;;4.53;3.77;;;5.50;99.90;;;;;;6246920;23;20172;-84
2021/11/20 08:39:37;;;;;;;3.87;2.90;;;5.50;99.90;;;;;;6247956;22;20183;-84
2021/11/20 08:42:10;;;;;;;3.63;2.80;;;5.50;99.90;;;;;;6248033;23;20178;-85
2021/11/20 08:44:42;;;;;;;3.60;2.67;;;5.50;99.90;;;;;;6251985;22;20167;-84
2021/11/20 08:47:17;;;;;;;3.40;2.33;;;5.50;99.90;;;;;;6247125;23;20171;-85
2021/11/20 08:49:50;;;;;;;3.93;2.60;;;5.50;99.90;;;;;;6247502;23;20223;-84
2021/11/20 08:52:21;;;;;;;3.33;2.50;;;5.50;99.90;;;;;;6248177;23;20179;-85
2021/11/20 08:54:56;;;;;;;3.10;2.30;;;5.40;99.90;;;;;;6248630;22;20164;-85
2021/11/20 08:57:32;;;;;;;2.83;2.47;;;5.40;99.90;;;;;;6246701;23;20179;-86
2021/11/20 09:00:04;;;;;;;3.20;2.20;;;5.40;99.90;;;;;;6247967;23;20175;-84
2021/11/20 09:02:38;;;;;;;3.23;2.30;;;5.40;99.90;;;;;;6247992;23;20161;-86
2021/11/20 09:05:15;;;;;;;2.80;2.30;;;5.40;99.90;;;;;;6256210;23;20229;-84
2021/11/20 09:07:51;;;;;;;3.20;2.60;;;5.40;99.90;;;;;;6261587;23;20179;-84
2021/11/20 09:10:29;;;;;;;3.03;1.93;;;5.40;99.90;;;;;;6251306;23;20243;-84
2021/11/20 09:13:22;;;;;;;4.87;2.50;;;5.40;99.90;;;;;;6258970;23;20182;-85
2021/11/20 09:15:57;;;;;;;2.87;2.03;;;5.40;99.90;;;;;;6247469;22;20202;-85
2021/11/20 09:18:28;;;;;;;3.17;2.17;;;5.40;99.90;;;;;;6248056;22;20171;-84
2021/11/20 09:21:00;;;;;;;2.73;2.20;;;5.50;99.90;;;;;;6247605;22;20183;-85
2021/11/20 09:23:33;;;;;;;2.93;2.30;;;5.50;99.90;;;;;;6248430;22;20182;-85
2021/11/20 09:26:16;;;;;;;3.17;2.20;;;5.50;99.90;;;;;;6247115;22;20190;-85
2021/11/20 09:28:59;;;;;;;2.13;1.90;;;5.50;99.90;;;;;;6250378;23;20195;-85
2021/11/20 09:34:19;;;;;;;3.97;2.30;;;5.50;99.90;;;;;;6264897;23;20168;-84
2021/11/20 09:36:54;;;;;;;2.03;1.77;;;5.50;99.90;;;;;;6263555;23;20177;-82
2021/11/20 09:39:30;;;;;;;4.40;1.97;;;5.50;99.90;;;;;;6253186;22;20613;-85
2021/11/20 09:42:26;;;;;;;2.83;2.03;;;5.60;99.90;;;;;;6249838;22;20171;-84
2021/11/20 09:45:03;;;;;;;5.20;1.80;;;5.50;99.90;;;;;;6249327;23;20175;-85
2021/11/20 09:47:37;;;;;;;2.47;1.90;;;5.50;99.90;;;;;;6249499;23;20254;-85
2021/11/20 09:50:13;;;;;;;2.10;1.77;;;5.50;99.90;;;;;;6249576;22;20203;-85
2021/11/20 09:52:46;;;;;;;2.60;2.37;;;5.50;99.90;;;;;;6249571;23;20176;-84
2021/11/20 09:55:21;;;;;;;3.93;1.80;;;5.50;99.90;;;;;;6246749;23;20171;-85
2021/11/20 09:57:56;;;;;;;2.20;1.70;;;5.50;99.90;;;;;;6249483;23;20175;-84
2021/11/20 10:00:59;;;;;;;2.90;1.97;;;5.50;99.90;;;;;;6249054;22;20174;-85
2021/11/20 10:03:39;;;;;;;2.77;1.97;;;5.50;99.90;;;;;;6249251;23;20167;-84
2021/11/20 10:06:12;;;;;;;4.43;2.13;;;5.50;99.90;;;;;;6248481;22;20233;-85
2021/11/20 10:08:46;;;;;;;3.00;2.00;;;5.50;99.90;;;;;;6249407;22;20196;-84
2021/11/20 10:11:31;;;;;;;3.00;2.10;;;5.50;99.90;;;;;;6249502;23;20240;-85
2021/11/20 10:14:09;;;;;;;3.37;1.83;;;5.40;99.90;;;;;;6248734;22;20938;-85
2021/11/20 10:16:49;;;;;;;1.97;1.77;;;5.50;99.90;;;;;;6249242;23;20183;-85
2021/11/20 10:19:25;;;;;;;1.70;1.60;;;5.50;99.90;;;;;;6249311;23;20178;-85
2021/11/20 10:22:11;;;;;;;2.50;1.70;;;5.50;99.90;;;;;;6249819;23;20250;-85
2021/11/20 10:24:50;;;;;;;3.80;1.90;;;5.50;99.90;;;;;;6249214;23;20263;-85
2021/11/20 10:27:41;;;;;;;4.83;1.90;;;5.50;99.90;;;;;;6249643;22;20614;-86
2021/11/20 10:30:29;;;;;;;2.37;1.93;;;5.50;99.90;;;;;;6250876;23;20199;-85
2021/11/20 10:33:07;;;;;;;2.60;1.80;;;5.50;99.90;;;;;;6271549;23;20198;-85
2021/11/20 10:35:43;;;;;;;2.70;2.00;;;5.40;99.90;;;;;;6269681;22;20220;-84
2021/11/20 10:38:24;;;;;;;3.33;2.10;;;5.40;99.90;;;;;;6259741;23;20262;-84
2021/11/20 10:41:02;;;;;;;3.67;2.20;;;5.40;99.90;;;;;;6250873;23;20259;-85
2021/11/20 10:43:37;;;;;;;4.03;2.40;;;5.50;99.90;;;;;;6250719;23;20237;-84
2021/11/20 10:46:26;;;;;;;2.47;1.93;;;5.40;99.90;;;;;;6249645;23;20175;-85
2021/11/20 10:49:45;;;;;;;2.97;2.33;;;5.40;99.90;;;;;;6250881;23;20231;-85
2021/11/20 10:52:35;;;;;;;2.70;2.47;;;5.40;99.90;;;;;;6246365;22;20191;-85
2021/11/20 10:55:33;;;;;;;3.50;2.40;;;5.40;99.90;;;;;;6249372;23;20191;-85
2021/11/20 10:58:54;;;;;;;5.03;2.50;;;5.40;99.90;;;;;;6237313;22;20178;-85
2021/11/20 11:02:06;;;;;;;2.63;2.40;;;5.40;99.90;;;;;;6208174;22;20196;-84
2021/11/20 11:04:58;;;;;;;3.07;2.30;;;5.30;99.90;;;;;;6250757;22;20709;-85
2021/11/20 11:07:36;;;;;;;2.70;2.23;;;5.20;99.90;;;;;;6236022;23;20186;-85
2021/11/20 11:10:15;;;;;;;3.60;2.23;;;5.30;99.90;;;;;;6251258;22;20195;-85
2021/11/20 11:12:57;;;;;;;2.30;1.87;;;5.30;99.90;;;;;;6249981;22;20170;-84
2021/11/20 11:15:47;;;;;;;3.33;1.90;;;5.30;99.90;;;;;;6249033;22;20175;-85
2021/11/20 11:18:38;;;;;;;7.37;2.37;;;5.40;99.90;;;;;;6249082;22;20164;-86
2021/11/20 11:21:39;;;;;;;3.00;2.70;;;5.30;99.90;;;;;;6252485;23;20171;-85
2021/11/20 11:24:37;;;;;;;3.93;3.10;;;5.20;99.90;;;;;;6268908;23;20182;-86
2021/11/20 11:27:14;;;;;;;3.63;3.10;;;5.20;99.90;;;;;;6264403;22;20217;-86
2021/11/20 11:30:08;;;;;;;5.30;3.27;;;5.30;99.90;;;;;;6267517;23;20203;-86
2021/11/20 11:32:43;;;;;;;6.70;3.10;;;5.40;99.90;;;;;;6264887;22;20176;-86
2021/11/20 11:35:22;;;;;;;8.17;3.30;;;5.40;99.90;;;;;;6261361;22;20179;-86
2021/11/20 11:38:29;;;;;;;5.10;3.37;;;5.40;99.90;;;;;;6261834;22;20175;-86
2021/11/20 11:41:11;;;;;;;5.63;2.70;;;5.40;99.90;;;;;;6247283;22;20234;-85
2021/11/20 11:43:47;;;;;;;4.47;3.43;;;5.50;99.90;;;;;;6252325;23;20175;-86
2021/11/20 11:46:31;;;;;;;6.83;2.80;;;5.50;99.90;;;;;;6251617;22;20233;-87
2021/11/20 11:49:39;;;;;;;7.83;2.77;;;5.50;99.90;;;;;;6249953;23;20187;-85
2021/11/20 11:52:32;;;;;;;8.90;3.10;;;5.50;99.90;;;;;;6251059;22;20238;-84
2021/11/20 11:55:25;;;;;;;5.33;3.33;;;5.50;99.90;;;;;;6251066;22;20246;-87
2021/11/20 11:58:10;;;;;;;6.43;2.90;;;5.50;99.90;;;;;;6251919;23;20495;-85
2021/11/20 12:00:44;;;;;;;8.73;3.07;;;5.40;99.90;;;;;;6251858;22;20172;-84
2021/11/20 12:03:29;;;;;;;4.47;2.70;;;5.50;99.90;;;;;;6250386;23;20163;-85
2021/11/20 12:06:16;;;;;;;4.50;2.83;;;5.40;99.90;;;;;;6250383;22;20180;-85
2021/11/20 12:08:50;;;;;;;4.80;2.70;;;5.50;99.90;;;;;;6250102;23;20253;-85
2021/11/20 12:11:35;;;;;;;5.60;2.73;;;5.50;99.90;;;;;;6252243;23;20257;-85
2021/11/20 12:14:18;;;;;;;2.93;2.50;;;5.50;99.90;;;;;;6252470;23;20171;-86
2021/11/20 12:16:56;;;;;;;3.53;2.20;;;5.50;99.90;;;;;;6251647;23;20172;-85
2021/11/20 12:19:37;;;;;;;4.90;2.90;;;5.40;99.90;;;;;;6252954;22;20194;-85
2021/11/20 12:22:20;;;;;;;4.73;2.47;;;5.30;99.90;;;;;;6252554;22;20246;-87
2021/11/20 12:24:58;;;;;;;4.53;3.17;;;5.20;99.90;;;;;;6251522;23;20180;-86
2021/11/20 12:27:35;;;;;;;5.03;2.90;;;5.10;99.90;;;;;;6252133;23;20179;-85
2021/11/20 12:30:29;;;;;;;4.30;3.00;;;5.00;99.90;;;;;;6251298;23;20205;-84
2021/11/20 12:33:30;;;;;;;3.20;2.67;;;4.90;99.90;;;;;;6252764;22;20180;-85
2021/11/20 12:36:21;;;;;;;7.23;2.70;;;4.90;99.90;;;;;;6247096;23;20472;-84
2021/11/20 12:39:10;;;;;;;3.97;2.63;;;4.80;99.90;;;;;;6252203;23;20164;-83
2021/11/20 12:42:01;;;;;;;3.73;2.67;;;4.70;99.90;;;;;;6255945;22;20602;-84
2021/11/20 12:45:04;;;;;;;5.07;3.00;;;4.70;99.90;;;;;;6261611;22;20179;-84
2021/11/20 12:47:58;;;;;;;3.90;2.30;;;4.70;99.90;;;;;;6264169;23;20172;-84
2021/11/20 12:50:48;;;;;;;4.97;2.90;;;4.70;99.90;;;;;;6267543;23;20260;-83
2021/11/20 12:53:31;;;;;;;7.00;3.20;;;4.60;99.90;;;;;;6266795;22;20214;-85
2021/11/20 12:56:22;;;;;;;5.43;3.23;;;4.50;99.90;;;;;;6265088;23;20255;-85
2021/11/20 12:58:56;;;;;;;4.27;2.70;;;4.50;99.90;;;;;;6260690;22;20168;-84
2021/11/20 13:01:32;;;;;;;4.20;3.00;;;4.40;99.90;;;;;;6257529;22;20181;-84
2021/11/20 13:04:15;;;;;;;7.00;3.13;;;4.40;99.90;;;;;;6252051;22;20167;-85
2021/11/20 13:06:50;;;;;;;3.97;3.10;;;4.30;99.90;;;;;;6250639;22;20180;-84
2021/11/20 13:09:30;;;;;;;3.30;2.67;;;4.30;99.90;;;;;;6251300;22;20215;-85
2021/11/20 13:12:06;;;;;;;3.90;2.90;;;4.30;99.90;;;;;;6250268;22;20199;-86
2021/11/20 13:14:58;;;;;;;4.23;2.83;;;4.20;99.90;;;;;;6250730;22;20164;-86
2021/11/20 13:17:33;;;;;;;3.47;2.80;;;4.20;99.90;;;;;;6249950;22;20172;-85
2021/11/20 13:20:30;;;;;;;4.60;3.30;;;4.20;99.90;;;;;;6249620;22;20662;-85
2021/11/20 13:23:09;;;;;;;5.63;3.50;;;4.20;99.90;;;;;;6249983;22;20226;-85
2021/11/20 13:26:07;;;;;;;3.97;2.97;;;4.20;99.90;;;;;;6248472;22;20176;-85
2021/11/20 13:28:44;;;;;;;2.97;2.50;;;4.20;99.90;;;;;;6249051;22;20229;-84
2021/11/20 13:31:20;;;;;;;4.23;3.00;;;4.20;99.90;;;;;;6250058;22;20199;-84
2021/11/20 13:33:52;;;;;;;5.13;2.63;;;4.20;99.90;;;;;;6248999;22;20163;-84
2021/11/20 13:36:24;;;;;;;5.20;3.13;;;4.20;99.90;;;;;;6251707;22;20246;-84
2021/11/20 13:38:59;;;;;;;4.10;3.37;;;4.10;99.90;;;;;;6249293;22;20207;-85
2021/11/20 13:41:30;;;;;;;6.27;3.80;;;4.20;99.90;;;;;;6248819;23;20175;-86
2021/11/20 13:44:04;;;;;;;19.23;4.90;;;4.20;99.90;;;;;;6248626;23;20251;-85
2021/11/20 13:46:35;;;;;;;42.53;7.10;;;4.20;99.90;;;;;;6248873;23;20182;-84
2021/11/20 13:49:07;;;;;;;83.63;6.13;;;4.10;99.90;;;;;;6253090;22;20198;-84
2021/11/20 13:51:39;;;;;;;67.53;7.83;;;4.10;99.90;;;;;;6249558;23;20203;-85
2021/11/20 13:54:12;;;;;;;50.60;5.73;;;4.10;99.90;;;;;;6249373;23;20194;-86
2021/11/20 13:56:48;;;;;;;16.57;4.90;;;4.10;99.90;;;;;;6248315;22;20231;-86
2021/11/20 13:59:24;;;;;;;5.73;4.70;;;4.10;99.90;;;;;;6249762;23;20182;-85
2021/11/20 14:01:57;;;;;;;6.90;4.60;;;4.10;99.90;;;;;;6249084;22;20193;-86
2021/11/20 14:04:37;;;;;;;5.20;4.40;;;4.10;99.90;;;;;;6249091;23;20175;-85
2021/11/20 14:07:10;;;;;;;4.87;4.07;;;4.10;99.90;;;;;;6248616;23;20637;-85